Time;durP1;ratioP1;P1;durP2;ratioP2;P2;SDS_P1;SDS_P2;PMS_P1;PMS_P2;Temp;Humidity;BMP_temperature;BMP_pressure;BME280_temperature;BME280_humidity;BME280_pressure;Samples;Min_cycle;Max_cycle;Signal;HPM_P1;HPM_P2
2022/01/25 00:26:33;;;;;;;0.88;0.88;;;0.80;99.90;;;;;;5001533;28;20033;-82
2022/01/25 00:29:27;;;;;;;9.43;2.55;;;0.80;99.90;;;;;;5011538;28;20041;-76
2022/01/25 00:31:53;;;;;;;1.00;0.75;;;0.70;99.90;;;;;;5014981;28;20030;-82
2022/01/25 00:34:19;;;;;;;0.60;0.60;;;0.70;99.90;;;;;;5016356;28;20026;-81
2022/01/25 00:36:45;;;;;;;0.90;0.90;;;0.70;99.90;;;;;;5015823;28;20018;-79
2022/01/25 00:39:11;;;;;;;2.55;1.48;;;0.60;99.90;;;;;;5012767;28;20117;-82
2022/01/25 00:41:36;;;;;;;0.38;0.38;;;0.50;99.90;;;;;;5016236;28;20018;-77
2022/01/25 00:44:03;;;;;;;1.60;1.50;;;0.50;99.90;;;;;;5015885;28;20096;-77
2022/01/25 00:46:30;;;;;;;1.98;1.85;;;0.50;99.90;;;;;;5015739;28;20393;-77
2022/01/25 00:49:00;;;;;;;0.90;0.90;;;0.40;99.90;;;;;;5015823;28;20018;-82
2022/01/25 00:54:02;;;;;;;0.47;0.47;;;0.40;99.90;;;;;;5004588;28;20053;-81
2022/01/25 00:56:31;;;;;;;4.03;1.00;;;0.30;99.90;;;;;;5015772;28;20374;-81
2022/01/25 00:58:58;;;;;;;0.70;0.55;;;0.30;99.90;;;;;;5013918;28;20060;-82
2022/01/25 01:01:26;;;;;;;0.68;0.68;;;0.30;99.90;;;;;;5003701;28;20511;-82
2022/01/25 01:03:51;;;;;;;0.30;0.30;;;0.30;99.90;;;;;;5014054;28;20029;-76
2022/01/25 01:06:18;;;;;;;0.20;0.20;;;0.30;99.90;;;;;;5013575;28;20505;-77
2022/01/25 01:08:44;;;;;;;0.65;0.65;;;0.30;99.90;;;;;;5018509;28;20034;-77
2022/01/25 01:11:16;;;;;;;0.38;0.38;;;0.20;99.90;;;;;;5012164;28;20033;-82
2022/01/25 01:38:06;;;;;;;1.33;1.25;;;0.10;99.90;;;;;;5014583;28;20119;-81
2022/01/25 01:48:10;;;;;;;0.98;0.43;;;0.10;99.90;;;;;;5008988;28;20033;-80
2022/01/25 01:50:38;;;;;;;0.22;0.22;;;0.10;99.90;;;;;;5014631;28;20030;-82
2022/01/25 01:53:06;;;;;;;1.45;0.85;;;0.10;99.90;;;;;;5013159;28;20120;-77
2022/01/25 01:55:33;;;;;;;1.45;1.35;;;0.10;99.90;;;;;;5014261;28;20103;-82
2022/01/25 01:58:00;;;;;;;0.20;0.20;;;0.10;99.90;;;;;;5013493;28;20505;-77
2022/01/25 02:00:35;;;;;;;0.10;0.10;;;0.10;99.90;;;;;;5003119;28;20018;-82
2022/01/25 02:03:02;;;;;;;1.60;1.50;;;0.00;99.90;;;;;;5012931;28;20469;-81
2022/01/25 02:05:29;;;;;;;2.90;0.70;;;0.10;99.90;;;;;;5014642;28;20029;-82
2022/01/25 02:07:55;;;;;;;1.33;1.20;;;0.10;99.90;;;;;;5000555;28;20076;-82
2022/01/25 02:10:21;;;;;;;1.40;1.33;;;0.10;99.90;;;;;;5014931;28;20462;-77
2022/01/25 02:12:49;;;;;;;0.13;0.13;;;0.10;99.90;;;;;;5014406;28;20068;-82
2022/01/25 02:15:16;;;;;;;0.70;0.70;;;0.00;99.90;;;;;;5012485;28;20034;-82
2022/01/25 02:23:00;;;;;;;0.40;0.40;;;0.00;99.90;;;;;;5013882;28;20057;-81
2022/01/25 02:25:26;;;;;;;0.10;0.10;;;0.00;99.90;;;;;;5015844;28;20088;-77
2022/01/25 02:27:52;;;;;;;0.38;0.38;;;-0.10;99.90;;;;;;5010066;28;20477;-81
2022/01/25 02:30:18;;;;;;;1.00;1.00;;;-0.10;99.90;;;;;;5017987;28;20049;-81
2022/01/25 02:32:47;;;;;;;0.45;0.45;;;-0.10;99.90;;;;;;5001830;28;20022;-77
2022/01/25 02:35:12;;;;;;;0.20;0.20;;;-0.20;99.90;;;;;;5012392;28;20026;-82
2022/01/25 02:37:38;;;;;;;1.42;1.33;;;-0.20;99.90;;;;;;5013788;28;20492;-82
2022/01/25 02:40:06;;;;;;;0.60;0.50;;;-0.20;99.90;;;;;;5013175;28;20026;-82
2022/01/25 02:42:31;;;;;;;1.58;0.63;;;-0.20;99.90;;;;;;5001970;28;20504;-77
2022/01/25 02:44:57;;;;;;;0.52;0.52;;;-0.30;99.90;;;;;;5022568;28;20037;-80
2022/01/25 02:50:08;;;;;;;0.30;0.30;;;-0.30;99.90;;;;;;5013741;28;20033;-82
2022/01/25 02:52:34;;;;;;;0.43;0.43;;;-0.30;99.90;;;;;;5013462;28;20029;-82
2022/01/25 02:55:00;;;;;;;0.85;0.65;;;-0.30;99.90;;;;;;5013605;28;20068;-82
2022/01/25 02:57:25;;;;;;;0.30;0.30;;;-0.30;99.90;;;;;;5012355;28;20085;-79
2022/01/25 02:59:51;;;;;;;0.32;0.25;;;-0.30;99.90;;;;;;5001484;28;20021;-77
2022/01/25 03:02:18;;;;;;;0.80;0.60;;;-0.30;99.90;;;;;;5013669;28;20061;-82
2022/01/25 03:04:44;;;;;;;0.08;0.08;;;-0.30;99.90;;;;;;5013420;28;20033;-81
2022/01/25 03:07:10;;;;;;;0.80;0.43;;;-0.30;99.90;;;;;;5012272;28;20022;-77
2022/01/25 03:09:36;;;;;;;0.55;0.40;;;-0.40;99.90;;;;;;5010939;28;20382;-77
2022/01/25 03:12:05;;;;;;;1.38;1.27;;;-0.40;99.90;;;;;;5013619;28;20080;-82
2022/01/25 03:14:33;;;;;;;0.65;0.65;;;-0.50;99.90;;;;;;5012658;28;20029;-81
2022/01/25 03:19:51;;;;;;;0.32;0.32;;;-0.60;99.90;;;;;;5013941;28;20034;-82
2022/01/25 03:22:55;;;;;;;3.22;0.98;;;-0.60;99.90;;;;;;5011437;28;20484;-82
2022/01/25 03:25:00;;;;;;;4.10;1.13;;;-0.60;99.90;;;;;;5002383;28;20022;-81
2022/01/25 03:27:26;;;;;;;0.63;0.63;;;-0.60;99.90;;;;;;5002054;28;20054;-81
2022/01/25 03:29:52;;;;;;;1.00;1.00;;;-0.60;99.90;;;;;;5005342;28;20084;-77
2022/01/25 03:32:17;;;;;;;0.25;0.25;;;-0.50;99.90;;;;;;5012695;28;20033;-81
2022/01/25 03:34:43;;;;;;;0.47;0.47;;;-0.60;99.90;;;;;;5012140;28;20111;-77
2022/01/25 03:37:09;;;;;;;4.05;1.20;;;-0.60;99.90;;;;;;5000502;28;20054;-81
2022/01/25 03:39:34;;;;;;;0.10;0.10;;;-0.50;99.90;;;;;;5011742;28;20022;-82
2022/01/25 03:42:06;;;;;;;0.88;0.88;;;-0.60;99.90;;;;;;5013405;28;20030;-82
2022/01/25 03:44:32;;;;;;;4.20;3.05;;;-0.60;99.90;;;;;;5013742;28;20068;-77
2022/01/25 03:47:05;;;;;;;7.03;2.38;;;-0.60;99.90;;;;;;5006709;28;20053;-82
2022/01/25 03:49:50;;;;;;;0.00;0.00;;;-0.70;99.90;;;;;;5017114;28;20057;-76
2022/01/25 03:52:22;;;;;;;0.63;0.63;;;-0.80;99.90;;;;;;5003708;28;20030;-78
2022/01/25 03:54:48;;;;;;;0.38;0.38;;;-0.80;99.90;;;;;;5016958;28;20037;-77
2022/01/25 03:57:16;;;;;;;0.77;0.77;;;-0.80;99.90;;;;;;5017009;28;20050;-81
2022/01/25 03:59:42;;;;;;;1.65;1.55;;;-0.80;99.90;;;;;;5017360;28;20128;-82
2022/01/25 04:02:08;;;;;;;0.00;0.00;;;-0.80;99.90;;;;;;5008236;28;20122;-82
2022/01/25 04:04:35;;;;;;;0.20;0.20;;;-0.70;99.90;;;;;;5014124;28;20046;-82
2022/01/25 04:07:08;;;;;;;0.73;0.60;;;-0.70;99.90;;;;;;5006872;28;20054;-82
2022/01/25 04:09:36;;;;;;;1.05;0.68;;;-0.70;99.90;;;;;;5016795;28;20058;-81
2022/01/25 04:12:02;;;;;;;1.25;0.88;;;-0.70;99.90;;;;;;5015961;28;20026;-81
2022/01/25 04:14:29;;;;;;;1.20;0.65;;;-0.70;99.90;;;;;;5004176;28;20046;-77
2022/01/25 04:17:02;;;;;;;0.52;0.50;;;-0.70;99.90;;;;;;5020053;28;20113;-77
2022/01/25 04:27:30;;;;;;;0.17;0.17;;;-0.70;99.90;;;;;;5006746;28;20049;-82
2022/01/25 04:29:56;;;;;;;0.17;0.17;;;-0.70;99.90;;;;;;5015527;28;20050;-82
2022/01/25 04:32:33;;;;;;;1.45;1.10;;;-0.70;99.90;;;;;;5007473;28;20057;-81
2022/01/25 04:35:13;;;;;;;0.98;0.93;;;-0.70;99.90;;;;;;5016114;28;20432;-77
2022/01/25 04:51:40;;;;;;;0.98;0.15;;;-0.80;99.90;;;;;;5010271;28;20049;-77
2022/01/25 05:01:49;;;;;;;0.00;0.00;;;-0.70;99.90;;;;;;5011305;28;20030;-82
2022/01/25 05:04:23;;;;;;;0.17;0.17;;;-0.90;99.90;;;;;;5009031;28;20053;-81
2022/01/25 05:06:51;;;;;;;0.50;0.50;;;-0.80;99.90;;;;;;5002219;28;20485;-82
2022/01/25 05:09:20;;;;;;;1.58;1.13;;;-0.90;99.90;;;;;;5010905;28;20495;-77
2022/01/25 05:11:48;;;;;;;0.00;0.00;;;-0.90;99.90;;;;;;5015561;28;20029;-82
2022/01/25 05:14:19;;;;;;;0.52;0.52;;;-0.90;99.90;;;;;;5014369;28;20473;-82
2022/01/25 05:16:58;;;;;;;0.20;0.20;;;-0.90;99.90;;;;;;5005049;28;20022;-83
2022/01/25 05:24:44;;;;;;;0.50;0.50;;;-0.90;99.90;;;;;;5004476;28;20080;-77
2022/01/25 05:27:12;;;;;;;0.50;0.50;;;-0.90;99.90;;;;;;5007671;28;20101;-79
2022/01/25 05:29:38;;;;;;;1.75;1.65;;;-0.90;99.90;;;;;;5017870;28;20167;-76
2022/01/25 05:32:05;;;;;;;2.47;1.10;;;-0.90;99.90;;;;;;5003653;28;20030;-82
2022/01/25 05:34:32;;;;;;;0.20;0.20;;;-0.90;99.90;;;;;;5013831;28;20049;-77
2022/01/25 05:36:58;;;;;;;0.73;0.73;;;-0.90;99.90;;;;;;5014573;28;20038;-82
2022/01/25 05:39:35;;;;;;;0.10;0.10;;;-0.90;99.90;;;;;;5013596;28;20029;-82
2022/01/25 05:45:17;;;;;;;0.75;0.75;;;-0.90;99.90;;;;;;5015038;28;20033;-81
2022/01/25 05:47:43;;;;;;;0.00;0.00;;;-0.90;99.90;;;;;;5005262;28;20425;-82
2022/01/25 05:50:12;;;;;;;0.00;0.00;;;-0.90;99.90;;;;;;5014997;28;20500;-81
2022/01/25 05:52:38;;;;;;;0.40;0.30;;;-0.90;99.90;;;;;;5014424;28;20396;-81
2022/01/25 05:55:08;;;;;;;0.00;0.00;;;-1.00;99.90;;;;;;5003091;28;20033;-76
2022/01/25 05:57:34;;;;;;;1.40;1.30;;;-0.90;99.90;;;;;;5011071;28;20045;-82
2022/01/25 06:00:00;;;;;;;0.82;0.82;;;-0.90;99.90;;;;;;5028754;28;20029;-82
2022/01/25 06:02:29;;;;;;;0.10;0.10;;;-0.90;99.90;;;;;;5012460;28;20026;-77
2022/01/25 06:04:55;;;;;;;0.30;0.30;;;-0.90;99.90;;;;;;5013410;28;20105;-82
2022/01/25 06:07:20;;;;;;;0.00;0.00;;;-0.90;99.90;;;;;;5009620;28;20106;-81
2022/01/25 06:09:48;;;;;;;0.00;0.00;;;-0.90;99.90;;;;;;4994595;28;20022;-78
2022/01/25 06:12:14;;;;;;;0.25;0.25;;;-0.90;99.90;;;;;;5014494;28;20464;-84
2022/01/25 06:14:40;;;;;;;1.23;0.75;;;-0.90;99.90;;;;;;5008744;28;20074;-84
2022/01/25 06:17:06;;;;;;;0.57;0.52;;;-0.90;99.90;;;;;;5005357;28;20026;-84
2022/01/25 06:19:32;;;;;;;0.25;0.25;;;-0.90;99.90;;;;;;5012985;28;20036;-84
2022/01/25 06:21:58;;;;;;;0.00;0.00;;;-0.90;99.90;;;;;;5013108;28;20072;-77
2022/01/25 06:24:24;;;;;;;0.20;0.20;;;-0.90;99.90;;;;;;5014237;28;20022;-82
2022/01/25 06:26:49;;;;;;;0.47;0.47;;;-1.00;99.90;;;;;;5015738;28;20049;-77
2022/01/25 06:29:18;;;;;;;0.03;0.03;;;-1.00;99.90;;;;;;5003315;28;20104;-83
2022/01/25 06:31:44;;;;;;;0.52;0.45;;;-1.00;99.90;;;;;;5006117;28;20036;-83
2022/01/25 06:34:09;;;;;;;0.05;0.05;;;-1.00;99.90;;;;;;5008552;28;20034;-82
2022/01/25 06:36:35;;;;;;;0.50;0.50;;;-1.00;99.90;;;;;;5004748;28;20417;-82
2022/01/25 06:39:01;;;;;;;0.65;0.63;;;-1.00;99.90;;;;;;5004260;28;20026;-83
2022/01/25 06:41:27;;;;;;;0.10;0.10;;;-1.00;99.90;;;;;;5013660;28;20030;-82
2022/01/25 06:43:53;;;;;;;0.40;0.38;;;-1.10;99.90;;;;;;5012919;28;20060;-82
2022/01/25 06:46:18;;;;;;;0.17;0.17;;;-1.00;99.90;;;;;;5003149;28;20062;-84
2022/01/25 06:48:44;;;;;;;0.13;0.13;;;-1.00;99.90;;;;;;5012722;28;20069;-84
2022/01/25 06:51:10;;;;;;;0.00;0.00;;;-1.00;99.90;;;;;;5013361;28;20068;-83
2022/01/25 06:53:37;;;;;;;0.03;0.03;;;-1.00;99.90;;;;;;5012825;28;20058;-83
2022/01/25 06:56:04;;;;;;;0.30;0.30;;;-1.00;99.90;;;;;;5014150;28;20566;-85
2022/01/25 06:58:30;;;;;;;3.40;0.52;;;-1.00;99.90;;;;;;5010959;28;20044;-84
2022/01/25 07:00:59;;;;;;;0.10;0.10;;;-1.00;99.90;;;;;;5013727;28;20535;-84
2022/01/25 07:03:24;;;;;;;0.03;0.03;;;-1.00;99.90;;;;;;5011726;28;20026;-83
2022/01/25 07:05:50;;;;;;;1.27;1.17;;;-1.00;99.90;;;;;;5010639;28;20140;-84
2022/01/25 07:08:16;;;;;;;1.70;0.28;;;-1.00;99.90;;;;;;5008282;28;20108;-84
2022/01/25 07:10:41;;;;;;;0.10;0.10;;;-1.10;99.90;;;;;;5002989;28;20037;-84
2022/01/25 07:13:07;;;;;;;0.20;0.20;;;-1.10;99.90;;;;;;4999950;28;20034;-81
2022/01/25 07:15:33;;;;;;;0.45;0.45;;;-1.00;99.90;;;;;;5012026;28;20038;-83
2022/01/25 07:17:59;;;;;;;1.42;1.02;;;-1.10;99.90;;;;;;4993206;28;20034;-84
2022/01/25 07:20:25;;;;;;;0.20;0.20;;;-1.10;99.90;;;;;;5003451;28;20028;-80
2022/01/25 07:22:52;;;;;;;0.28;0.28;;;-1.10;99.90;;;;;;5005827;28;20123;-84
2022/01/25 07:25:18;;;;;;;0.47;0.47;;;-1.10;99.90;;;;;;4997320;28;20567;-84
2022/01/25 07:27:43;;;;;;;0.13;0.13;;;-1.10;99.90;;;;;;5004870;28;20109;-84
2022/01/25 07:30:09;;;;;;;0.28;0.28;;;-1.10;99.90;;;;;;5005057;28;20034;-83
2022/01/25 07:32:35;;;;;;;0.32;0.32;;;-1.10;99.90;;;;;;5005361;28;20084;-79
2022/01/25 07:35:01;;;;;;;0.00;0.00;;;-1.10;99.90;;;;;;5019743;28;20086;-84
2022/01/25 07:37:27;;;;;;;1.98;1.52;;;-1.10;99.90;;;;;;5008549;28;20133;-82
2022/01/25 07:39:53;;;;;;;0.30;0.30;;;-1.00;99.90;;;;;;5000373;28;20029;-85
2022/01/25 07:42:18;;;;;;;0.00;0.00;;;-1.10;99.90;;;;;;5008017;28;20026;-83
2022/01/25 07:44:45;;;;;;;0.15;0.15;;;-1.00;99.90;;;;;;5011146;28;20022;-82
2022/01/25 07:47:11;;;;;;;0.65;0.52;;;-1.10;99.90;;;;;;5006841;28;20022;-78
2022/01/25 07:49:37;;;;;;;2.83;1.10;;;-1.10;99.90;;;;;;4997479;28;20030;-85
2022/01/25 07:52:03;;;;;;;0.08;0.08;;;-1.00;99.90;;;;;;5008634;28;20137;-80
2022/01/25 07:54:29;;;;;;;0.20;0.20;;;-1.00;99.90;;;;;;5011780;28;20033;-89
2022/01/25 07:56:56;;;;;;;0.17;0.17;;;-0.90;99.90;;;;;;5001070;28;20041;-92
2022/01/25 07:59:21;;;;;;;1.67;1.35;;;-0.80;99.90;;;;;;4997392;28;20076;-92
2022/01/25 08:01:48;;;;;;;4.55;2.78;;;-0.70;99.90;;;;;;5010038;28;20065;-92
2022/01/25 08:04:15;;;;;;;2.58;1.65;;;-0.70;99.90;;;;;;5010489;28;20034;-91
2022/01/25 08:06:41;;;;;;;0.17;0.17;;;-0.80;99.90;;;;;;5009363;28;20030;-91
2022/01/25 08:09:08;;;;;;;0.25;0.25;;;-0.60;99.90;;;;;;5008435;28;20037;-80
2022/01/25 08:11:35;;;;;;;4.90;1.10;;;-0.50;99.90;;;;;;5028430;28;20041;-77
2022/01/25 08:14:13;;;;;;;0.63;0.60;;;-0.60;99.90;;;;;;5008908;28;20036;-89
2022/01/25 08:16:40;;;;;;;0.65;0.65;;;-0.50;99.90;;;;;;5010511;28;20034;-78
2022/01/25 08:19:07;;;;;;;11.50;1.75;;;-0.50;99.90;;;;;;4993349;28;20023;-79
2022/01/25 08:21:33;;;;;;;0.35;0.35;;;-0.50;99.90;;;;;;4998933;28;20015;-77
2022/01/25 08:23:59;;;;;;;0.50;0.50;;;-0.50;99.90;;;;;;5012111;28;20022;-91
2022/01/25 08:26:24;;;;;;;0.47;0.45;;;-0.40;99.90;;;;;;5007519;28;20517;-91
2022/01/25 08:28:50;;;;;;;0.00;0.00;;;-0.40;99.90;;;;;;5018516;28;20021;-79
2022/01/25 08:31:16;;;;;;;0.57;0.57;;;-0.30;99.90;;;;;;5021497;28;20034;-79
2022/01/25 08:33:41;;;;;;;1.45;0.90;;;-0.30;99.90;;;;;;5016188;28;20030;-86
2022/01/25 08:36:07;;;;;;;0.38;0.38;;;-0.20;99.90;;;;;;5011970;28;20026;-78
2022/01/25 08:38:33;;;;;;;1.55;1.45;;;-0.10;99.90;;;;;;5011880;28;20053;-80
2022/01/25 08:40:59;;;;;;;0.57;0.52;;;-0.10;99.90;;;;;;5006893;28;20441;-86
2022/01/25 08:43:24;;;;;;;0.98;0.90;;;0.00;99.90;;;;;;5014002;28;20026;-88
2022/01/25 08:45:50;;;;;;;0.30;0.30;;;0.30;99.90;;;;;;5020869;28;20024;-83
2022/01/25 08:48:16;;;;;;;0.10;0.10;;;0.60;99.90;;;;;;5018665;28;20034;-78
2022/01/25 08:50:42;;;;;;;0.70;0.70;;;0.70;99.90;;;;;;5011063;28;20042;-88
2022/01/25 08:53:09;;;;;;;0.10;0.10;;;0.70;99.90;;;;;;5014592;28;20105;-79
2022/01/25 08:55:34;;;;;;;0.55;0.20;;;0.80;99.90;;;;;;5012267;28;20030;-79
2022/01/25 08:58:01;;;;;;;0.10;0.10;;;0.80;99.90;;;;;;5012742;28;20045;-78
2022/01/25 09:00:26;;;;;;;0.47;0.47;;;0.80;99.90;;;;;;5010941;28;20416;-87
2022/01/25 09:02:52;;;;;;;1.63;0.93;;;0.80;99.90;;;;;;5009934;28;20101;-86
2022/01/25 09:05:18;;;;;;;1.00;0.90;;;0.90;99.90;;;;;;5008140;28;20088;-87
2022/01/25 09:07:44;;;;;;;1.50;0.45;;;0.90;99.90;;;;;;5013891;28;20027;-88
2022/01/25 09:10:10;;;;;;;0.15;0.15;;;1.00;99.90;;;;;;5020211;28;20117;-79
2022/01/25 09:12:35;;;;;;;6.07;0.63;;;1.00;99.90;;;;;;5002314;28;20038;-84
2022/01/25 09:15:01;;;;;;;0.20;0.20;;;1.10;99.90;;;;;;5035800;28;20026;-88
2022/01/25 09:17:27;;;;;;;12.43;1.75;;;1.20;99.90;;;;;;5036837;28;20240;-87
2022/01/25 09:19:53;;;;;;;1.23;1.13;;;1.30;99.90;;;;;;5034918;28;20093;-86
2022/01/25 09:22:19;;;;;;;0.38;0.38;;;1.40;99.90;;;;;;5021793;28;20503;-79
2022/01/25 09:24:45;;;;;;;0.80;0.80;;;1.50;99.90;;;;;;5011445;28;20018;-89
2022/01/25 09:27:11;;;;;;;1.05;0.52;;;1.60;99.90;;;;;;5006860;28;20045;-79
2022/01/25 09:29:37;;;;;;;0.88;0.50;;;1.70;99.90;;;;;;5012950;28;20045;-89
2022/01/25 09:32:03;;;;;;;1.13;0.68;;;1.80;99.90;;;;;;5011870;28;20161;-80
2022/01/25 09:34:29;;;;;;;0.17;0.17;;;1.80;99.90;;;;;;5013684;28;20037;-79
2022/01/25 09:36:55;;;;;;;0.43;0.43;;;1.80;99.90;;;;;;5023310;28;20026;-87
2022/01/25 09:39:21;;;;;;;0.40;0.40;;;1.90;99.90;;;;;;5017494;28;20034;-80
2022/01/25 09:41:47;;;;;;;0.57;0.45;;;2.10;99.90;;;;;;5012017;28;20022;-80
2022/01/25 09:44:13;;;;;;;0.63;0.63;;;2.20;99.90;;;;;;5010493;28;20460;-79
2022/01/25 09:46:39;;;;;;;1.05;1.05;;;2.30;99.90;;;;;;5013915;28;20138;-89
2022/01/25 09:49:05;;;;;;;0.90;0.80;;;2.40;99.90;;;;;;5008771;28;20050;-80
2022/01/25 09:51:32;;;;;;;1.35;1.10;;;2.50;99.90;;;;;;5011094;28;20030;-87
2022/01/25 09:53:58;;;;;;;0.50;0.50;;;2.60;99.90;;;;;;5011011;28;20401;-77
2022/01/25 09:56:24;;;;;;;0.50;0.50;;;2.70;99.90;;;;;;5024660;28;20040;-88
2022/01/25 09:58:50;;;;;;;0.63;0.63;;;2.80;99.90;;;;;;5004793;28;20034;-77
2022/01/25 10:01:27;;;;;;;1.60;1.33;;;2.80;99.90;;;;;;5013646;28;20072;-88
2022/01/25 10:03:53;;;;;;;1.38;1.25;;;2.90;99.90;;;;;;5008055;28;20022;-80
2022/01/25 10:06:21;;;;;;;7.93;1.23;;;3.00;99.90;;;;;;5013882;28;20481;-87
2022/01/25 10:08:50;;;;;;;2.15;1.25;;;3.10;99.90;;;;;;5016071;28;20018;-80
2022/01/25 10:11:19;;;;;;;0.30;0.30;;;3.20;99.90;;;;;;5007138;28;20443;-86
2022/01/25 10:13:49;;;;;;;2.47;1.60;;;3.20;99.90;;;;;;5012258;28;20046;-78
2022/01/25 10:16:17;;;;;;;0.10;0.10;;;3.30;99.90;;;;;;5013335;28;20037;-87
2022/01/25 10:18:44;;;;;;;0.20;0.20;;;3.30;99.90;;;;;;4998851;28;20026;-79
2022/01/25 10:21:31;;;;;;;2.67;1.38;;;3.40;99.90;;;;;;5012767;28;20026;-79
2022/01/25 10:24:11;;;;;;;1.65;0.80;;;3.60;99.90;;;;;;5013032;28;20040;-78
2022/01/25 10:26:53;;;;;;;0.52;0.52;;;3.70;99.90;;;;;;5012435;28;20030;-79
2022/01/25 10:29:37;;;;;;;0.55;0.55;;;3.90;99.90;;;;;;5013738;28;20076;-88
2022/01/25 10:32:05;;;;;;;0.40;0.40;;;4.00;99.90;;;;;;5017942;28;20022;-79
2022/01/25 10:34:40;;;;;;;0.70;0.70;;;4.20;99.90;;;;;;5010272;28;20045;-77
2022/01/25 10:37:09;;;;;;;0.47;0.47;;;4.20;99.90;;;;;;4996206;28;20022;-79
2022/01/25 10:39:39;;;;;;;0.40;0.40;;;4.30;99.90;;;;;;5011578;28;20402;-80
2022/01/25 10:42:23;;;;;;;0.15;0.15;;;4.40;99.90;;;;;;5012884;28;20041;-79
2022/01/25 10:44:52;;;;;;;0.75;0.75;;;4.60;99.90;;;;;;5001030;28;20030;-79
2022/01/25 10:47:45;;;;;;;1.30;1.00;;;4.70;99.90;;;;;;5011993;28;20037;-88
2022/01/25 10:50:20;;;;;;;0.73;0.73;;;4.80;99.90;;;;;;5005323;28;20030;-80
2022/01/25 10:52:47;;;;;;;3.03;1.50;;;5.10;99.90;;;;;;4999430;28;20030;-80
2022/01/25 10:55:14;;;;;;;1.27;1.20;;;5.40;99.90;;;;;;5011779;28;20034;-79
2022/01/25 10:57:40;;;;;;;0.25;0.25;;;5.50;99.90;;;;;;5012413;28;20089;-88
2022/01/25 11:00:09;;;;;;;1.65;1.55;;;5.60;99.90;;;;;;5010448;28;20065;-82
2022/01/25 11:02:56;;;;;;;1.60;1.45;;;5.60;99.90;;;;;;5009759;28;20101;-79
2022/01/25 11:05:22;;;;;;;1.88;1.30;;;5.70;99.90;;;;;;5010331;28;20046;-79
2022/01/25 11:07:48;;;;;;;1.10;1.00;;;5.80;99.90;;;;;;5014013;28;20489;-78
2022/01/25 11:10:16;;;;;;;3.40;1.65;;;5.90;99.90;;;;;;5000388;28;20059;-78
2022/01/25 11:12:48;;;;;;;2.28;1.35;;;6.10;99.90;;;;;;5002225;28;20029;-77
2022/01/25 11:15:15;;;;;;;2.33;1.15;;;6.30;99.90;;;;;;5004960;28;20396;-84
2022/01/25 11:17:40;;;;;;;0.75;0.65;;;6.40;99.90;;;;;;5000919;28;20022;-78
2022/01/25 11:20:07;;;;;;;0.40;0.40;;;6.50;99.90;;;;;;5008274;28;20053;-86
2022/01/25 11:22:33;;;;;;;0.25;0.25;;;6.50;99.90;;;;;;5011435;28;20034;-79
2022/01/25 11:25:01;;;;;;;4.25;1.98;;;6.60;99.90;;;;;;5013711;28;20041;-77
2022/01/25 11:27:29;;;;;;;1.23;0.98;;;6.80;99.90;;;;;;5009350;28;20048;-85
2022/01/25 11:29:59;;;;;;;3.47;2.92;;;6.90;99.90;;;;;;5012157;28;20030;-86
2022/01/25 11:32:31;;;;;;;0.57;0.57;;;6.90;99.90;;;;;;5005999;28;20029;-78
2022/01/25 11:34:57;;;;;;;2.35;1.35;;;7.00;99.90;;;;;;5004814;28;20064;-78
2022/01/25 11:37:42;;;;;;;0.73;0.73;;;7.10;99.90;;;;;;5009826;28;20034;-85
2022/01/25 11:40:31;;;;;;;2.08;1.00;;;7.30;99.90;;;;;;4995932;28;20034;-77
2022/01/25 11:43:07;;;;;;;0.17;0.17;;;7.40;99.90;;;;;;5009250;28;20381;-87
2022/01/25 11:45:36;;;;;;;0.63;0.63;;;7.50;99.90;;;;;;5005190;28;20018;-78
2022/01/25 11:48:02;;;;;;;0.57;0.57;;;7.60;99.90;;;;;;5006708;28;20417;-86
2022/01/25 11:50:31;;;;;;;1.30;0.40;;;7.70;99.90;;;;;;5012940;28;20058;-87
2022/01/25 11:53:05;;;;;;;2.85;2.13;;;7.80;99.90;;;;;;5000866;28;20701;-87
2022/01/25 11:55:49;;;;;;;1.25;0.60;;;8.00;99.90;;;;;;5008106;28;20453;-87
2022/01/25 11:58:36;;;;;;;5.72;1.88;;;8.20;99.90;;;;;;5011182;28;20048;-78
2022/01/25 12:01:05;;;;;;;3.00;2.00;;;8.40;99.90;;;;;;5010933;28;20037;-87
2022/01/25 12:03:32;;;;;;;1.45;1.38;;;8.60;99.90;;;;;;5027457;28;20539;-86
2022/01/25 12:06:31;;;;;;;0.82;0.82;;;8.70;99.90;;;;;;5012653;28;20088;-83
2022/01/25 12:11:39;;;;;;;0.60;0.60;;;8.90;99.90;;;;;;5015565;28;20030;-76
2022/01/25 12:14:43;;;;;;;1.42;1.33;;;9.00;99.90;;;;;;5025058;28;20029;-78
2022/01/25 12:17:11;;;;;;;1.75;1.33;;;9.20;99.90;;;;;;5003638;28;20041;-78
2022/01/25 12:19:46;;;;;;;0.73;0.73;;;9.30;99.90;;;;;;5009952;28;20054;-85
2022/01/25 12:22:28;;;;;;;2.92;1.15;;;9.40;99.90;;;;;;5009520;28;20027;-78
2022/01/25 12:25:04;;;;;;;0.63;0.63;;;9.30;99.90;;;;;;5014402;28;20058;-76
2022/01/25 12:27:58;;;;;;;0.88;0.88;;;9.50;99.90;;;;;;5015184;28;20022;-87
2022/01/25 12:30:26;;;;;;;1.95;1.17;;;9.60;99.90;;;;;;5009290;28;20022;-85
2022/01/25 12:33:03;;;;;;;8.27;3.03;;;9.60;99.90;;;;;;5005058;28;20439;-86
2022/01/25 12:35:31;;;;;;;0.00;0.00;;;9.60;99.90;;;;;;5006157;28;20497;-84
2022/01/25 12:38:00;;;;;;;0.85;0.73;;;9.60;99.90;;;;;;5015173;28;20108;-77
2022/01/25 12:40:25;;;;;;;12.38;2.35;;;9.70;99.90;;;;;;5014013;28;20435;-77
2022/01/25 12:43:14;;;;;;;2.50;0.63;;;9.90;99.90;;;;;;5009570;28;20026;-77
2022/01/25 12:45:45;;;;;;;0.65;0.65;;;10.00;99.90;;;;;;5014958;28;20456;-77
2022/01/25 12:48:17;;;;;;;0.40;0.40;;;10.20;99.90;;;;;;5001196;28;20022;-78
2022/01/25 12:50:47;;;;;;;0.93;0.52;;;10.20;99.90;;;;;;5014283;28;20038;-77
2022/01/25 12:53:16;;;;;;;2.17;1.90;;;10.20;99.90;;;;;;5016985;28;20141;-85
2022/01/25 12:55:46;;;;;;;3.60;0.60;;;10.20;99.90;;;;;;5002192;28;20069;-85
2022/01/25 12:58:12;;;;;;;0.25;0.25;;;10.30;99.90;;;;;;5012332;28;20053;-77
2022/01/25 13:00:46;;;;;;;0.68;0.35;;;10.40;99.90;;;;;;5009810;28;20505;-88
2022/01/25 13:03:15;;;;;;;3.72;0.95;;;10.40;99.90;;;;;;4999871;28;20065;-78
2022/01/25 13:05:47;;;;;;;1.20;0.65;;;10.40;99.90;;;;;;4995333;28;20498;-86
2022/01/25 13:08:18;;;;;;;2.10;1.10;;;10.40;99.90;;;;;;5007016;28;20027;-78
2022/01/25 13:10:44;;;;;;;1.85;1.52;;;10.50;99.90;;;;;;5008609;28;20053;-84
2022/01/25 13:13:31;;;;;;;2.65;1.75;;;10.40;99.90;;;;;;5014225;28;20026;-85
2022/01/25 13:15:58;;;;;;;1.23;1.13;;;10.60;99.90;;;;;;5013011;28;20116;-78
2022/01/25 13:18:27;;;;;;;1.63;1.52;;;10.60;99.90;;;;;;5008943;28;20388;-84
2022/01/25 13:21:06;;;;;;;0.63;0.60;;;10.70;99.90;;;;;;4998594;28;20030;-77
2022/01/25 13:23:32;;;;;;;3.33;1.02;;;10.70;99.90;;;;;;4999368;28;20028;-77
2022/01/25 13:26:11;;;;;;;2.95;0.80;;;10.80;99.90;;;;;;4990474;28;20093;-87
2022/01/25 13:28:53;;;;;;;0.35;0.35;;;11.00;99.90;;;;;;5005694;28;20026;-78
2022/01/25 13:31:21;;;;;;;0.60;0.60;;;11.00;99.90;;;;;;5012859;28;20450;-84
2022/01/25 13:33:47;;;;;;;0.75;0.75;;;11.10;99.90;;;;;;5011999;28;20057;-79
2022/01/25 13:36:19;;;;;;;1.65;1.10;;;11.00;99.90;;;;;;5010455;28;20121;-84
2022/01/25 13:38:47;;;;;;;1.40;0.68;;;11.00;99.90;;;;;;5010781;28;20032;-79
2022/01/25 13:41:27;;;;;;;0.95;0.95;;;10.90;99.90;;;;;;5012224;28;20033;-86
2022/01/25 13:46:36;;;;;;;2.00;1.50;;;11.20;99.90;;;;;;5010316;28;20037;-79
2022/01/25 13:49:13;;;;;;;0.40;0.40;;;11.20;99.90;;;;;;5005540;28;20374;-79
2022/01/25 13:51:40;;;;;;;0.30;0.30;;;11.10;99.90;;;;;;5012322;28;20043;-87
2022/01/25 13:54:07;;;;;;;6.68;2.05;;;11.30;99.90;;;;;;5013213;28;20034;-78
2022/01/25 13:56:34;;;;;;;0.47;0.47;;;11.40;99.90;;;;;;5011750;28;20073;-79
2022/01/25 13:59:03;;;;;;;3.55;1.33;;;11.40;99.90;;;;;;5011958;28;20413;-79
2022/01/25 14:01:34;;;;;;;2.75;0.73;;;11.60;99.90;;;;;;5015691;28;20765;-83
2022/01/25 14:04:09;;;;;;;6.05;1.75;;;11.80;99.90;;;;;;5010520;28;20046;-85
2022/01/25 14:06:40;;;;;;;0.85;0.85;;;11.70;99.90;;;;;;5012332;28;20014;-87
2022/01/25 14:09:20;;;;;;;1.63;1.20;;;11.70;99.90;;;;;;5009300;28;20018;-78
2022/01/25 14:25:38;;;;;;;33.47;2.15;;;11.50;99.90;;;;;;5006914;28;20081;-77
2022/01/25 14:28:10;;;;;;;0.60;0.60;;;11.50;99.90;;;;;;5007441;28;20080;-87
2022/01/25 14:30:39;;;;;;;3.43;1.07;;;11.50;99.90;;;;;;5007399;28;20048;-77
2022/01/25 14:33:14;;;;;;;0.55;0.55;;;11.80;99.90;;;;;;5004261;28;20523;-78
2022/01/25 14:35:43;;;;;;;0.43;0.40;;;11.60;99.90;;;;;;5009861;28;20022;-78
2022/01/25 14:38:15;;;;;;;0.82;0.55;;;11.50;99.90;;;;;;5000465;28;20029;-79
2022/01/25 14:40:52;;;;;;;1.57;1.43;;;11.50;99.90;;;;;;5006682;28;20124;-77
2022/01/25 14:43:22;;;;;;;0.20;0.20;;;11.50;99.90;;;;;;5007960;28;20374;-89
2022/01/25 14:46:18;;;;;;;0.95;0.88;;;11.60;99.90;;;;;;4996758;28;20037;-89
2022/01/25 14:48:55;;;;;;;0.63;0.63;;;11.40;99.90;;;;;;5003248;28;20096;-88
2022/01/25 14:51:20;;;;;;;1.13;0.90;;;11.50;99.90;;;;;;5005847;28;20025;-86
2022/01/25 14:53:53;;;;;;;4.05;2.33;;;11.50;99.90;;;;;;5011165;28;20362;-78
2022/01/25 14:56:19;;;;;;;2.08;1.15;;;11.60;99.90;;;;;;5010545;28;20389;-78
2022/01/25 15:01:20;;;;;;;0.57;0.57;;;11.50;99.90;;;;;;5000095;28;20026;-80
2022/01/25 15:03:49;;;;;;;0.75;0.75;;;11.50;99.90;;;;;;5011606;28;20386;-79
2022/01/25 15:06:17;;;;;;;2.30;1.08;;;11.60;99.90;;;;;;5011480;28;20179;-78
2022/01/25 15:08:53;;;;;;;0.75;0.55;;;11.80;99.90;;;;;;5010788;28;20101;-79
2022/01/25 15:11:21;;;;;;;1.40;0.77;;;11.90;99.90;;;;;;4999503;28;20116;-78